Time;durP1;ratioP1;P1;durP2;ratioP2;P2;SDS_P1;SDS_P2;PMS_P1;PMS_P2;Temp;Humidity;BMP_temperature;BMP_pressure;BME280_temperature;BME280_humidity;BME280_pressure;Samples;Min_cycle;Max_cycle;Signal;HPM_P1;HPM_P2
2021/10/12 00:02:40;;;;;;;5.03;0.97;;;;;;;;;;10220725;28;20037;-61
2021/10/12 00:07:39;;;;;;;0.97;0.50;;;;;;;;;;10245914;28;20041;-61
2021/10/12 00:12:36;;;;;;;4.85;0.90;;;;;;;;;;10227070;28;20109;-61
2021/10/12 00:17:34;;;;;;;3.33;1.40;;;;;;;;;;10231700;28;20062;-60
2021/10/12 00:22:31;;;;;;;3.13;1.40;;;;;;;;;;10248464;28;20573;-58
2021/10/12 00:27:29;;;;;;;1.73;0.50;;;;;;;;;;10229508;28;20432;-62
2021/10/12 00:32:27;;;;;;;4.97;2.17;;;;;;;;;;10240226;28;20042;-57
2021/10/12 00:37:24;;;;;;;6.00;0.67;;;;;;;;;;10222163;28;20053;-60
2021/10/12 00:42:21;;;;;;;5.80;1.27;;;;;;;;;;10229816;28;20034;-59
2021/10/12 00:47:19;;;;;;;3.10;0.50;;;;;;;;;;10246089;28;20046;-59
2021/10/12 00:52:16;;;;;;;4.47;1.00;;;;;;;;;;10240475;28;20034;-57
2021/10/12 00:57:14;;;;;;;0.93;0.60;;;;;;;;;;10242947;28;20057;-60
2021/10/12 01:02:13;;;;;;;8.63;0.98;;;;;;;;;;10212321;28;20037;-59
2021/10/12 01:07:10;;;;;;;3.60;0.53;;;;;;;;;;10222397;28;20046;-61
2021/10/12 01:12:07;;;;;;;2.27;0.47;;;;;;;;;;10225388;28;20418;-61
2021/10/12 01:17:05;;;;;;;7.37;0.90;;;;;;;;;;10240802;28;20269;-62
2021/10/12 01:22:03;;;;;;;0.67;0.30;;;;;;;;;;10245112;28;20048;-62
2021/10/12 01:27:00;;;;;;;0.57;0.20;;;;;;;;;;10247437;28;20056;-61
2021/10/12 01:31:57;;;;;;;2.30;0.37;;;;;;;;;;10244073;28;20128;-61
2021/10/12 01:36:55;;;;;;;6.13;0.40;;;;;;;;;;10224395;28;20031;-61
2021/10/12 01:41:52;;;;;;;5.80;0.60;;;;;;;;;;10246763;28;20252;-61
2021/10/12 01:46:49;;;;;;;3.33;0.40;;;;;;;;;;10243760;28;20037;-62
2021/10/12 01:51:47;;;;;;;5.07;1.60;;;;;;;;;;10255661;28;20542;-59
2021/10/12 01:56:45;;;;;;;9.60;0.83;;;;;;;;;;10256009;28;20076;-60
2021/10/12 02:01:43;;;;;;;5.65;0.63;;;;;;;;;;10243487;28;20038;-61
2021/10/12 02:06:40;;;;;;;6.47;0.98;;;;;;;;;;10248571;28;20227;-57
2021/10/12 02:11:38;;;;;;;2.37;0.47;;;;;;;;;;10229718;28;20040;-59
2021/10/12 02:16:35;;;;;;;14.57;1.07;;;;;;;;;;10224340;28;20038;-61
2021/10/12 02:21:32;;;;;;;5.20;1.00;;;;;;;;;;10252658;28;20285;-60
2021/10/12 02:26:30;;;;;;;8.70;1.10;;;;;;;;;;10246696;28;20522;-61
2021/10/12 02:31:28;;;;;;;0.30;0.30;;;;;;;;;;10250595;28;20034;-60
2021/10/12 02:36:25;;;;;;;0.63;0.20;;;;;;;;;;10244095;28;20042;-61
2021/10/12 02:41:22;;;;;;;1.07;0.20;;;;;;;;;;10267079;28;20252;-62
2021/10/12 02:46:20;;;;;;;7.13;0.67;;;;;;;;;;10272086;28;20040;-59
2021/10/12 02:51:17;;;;;;;3.53;1.03;;;;;;;;;;10261233;28;20480;-62
2021/10/12 02:56:14;;;;;;;5.83;0.67;;;;;;;;;;10262224;28;20462;-61
2021/10/12 03:01:12;;;;;;;2.33;0.80;;;;;;;;;;10261210;28;20030;-61
2021/10/12 03:06:09;;;;;;;1.73;0.50;;;;;;;;;;10257730;28;20034;-60
2021/10/12 03:11:07;;;;;;;1.13;0.43;;;;;;;;;;10233918;28;20026;-59
2021/10/12 03:16:04;;;;;;;3.67;0.83;;;;;;;;;;10261371;28;20025;-61
2021/10/12 03:21:02;;;;;;;4.47;0.97;;;;;;;;;;10244110;28;20045;-62
2021/10/12 03:25:59;;;;;;;3.30;0.90;;;;;;;;;;10303176;23;20050;-64
2021/10/12 03:30:57;;;;;;;6.07;1.07;;;;;;;;;;10258657;28;20048;-63
2021/10/12 03:35:56;;;;;;;12.13;1.03;;;;;;;;;;10270711;28;20499;-60
2021/10/12 03:40:54;;;;;;;3.03;0.40;;;;;;;;;;10264418;28;20042;-60
2021/10/12 03:45:52;;;;;;;3.53;0.37;;;;;;;;;;10263774;28;20308;-61
2021/10/12 03:50:49;;;;;;;1.70;0.27;;;;;;;;;;10279955;28;20049;-61
2021/10/12 03:55:47;;;;;;;0.53;0.17;;;;;;;;;;10264611;28;20045;-61
2021/10/12 04:00:44;;;;;;;8.23;0.93;;;;;;;;;;10240329;22;20496;-59
2021/10/12 04:05:42;;;;;;;8.60;1.00;;;;;;;;;;10254094;28;20045;-60
2021/10/12 04:10:39;;;;;;;11.43;1.03;;;;;;;;;;10253951;28;20037;-59
2021/10/12 04:15:37;;;;;;;2.00;0.50;;;;;;;;;;10245565;28;20034;-57
2021/10/12 04:20:35;;;;;;;1.83;0.70;;;;;;;;;;10212447;28;20038;-60
2021/10/12 04:25:32;;;;;;;5.77;0.60;;;;;;;;;;10247182;28;20288;-60
2021/10/12 04:30:30;;;;;;;6.97;1.00;;;;;;;;;;10226777;28;20045;-59
2021/10/12 04:35:27;;;;;;;2.47;0.87;;;;;;;;;;10239332;28;20072;-59
2021/10/12 04:40:25;;;;;;;6.03;1.20;;;;;;;;;;10243411;28;20663;-60
2021/10/12 04:45:23;;;;;;;1.33;0.77;;;;;;;;;;10229748;28;20564;-60
2021/10/12 04:50:20;;;;;;;6.83;1.23;;;;;;;;;;10202266;28;20407;-61
2021/10/12 04:55:18;;;;;;;2.00;0.70;;;;;;;;;;10220408;28;20030;-61
2021/10/12 05:00:15;;;;;;;9.30;1.13;;;;;;;;;;10230411;28;20083;-62
2021/10/12 05:05:12;;;;;;;3.97;0.80;;;;;;;;;;10233948;28;20504;-61
2021/10/12 05:10:10;;;;;;;5.53;1.13;;;;;;;;;;10221613;28;20049;-60
2021/10/12 05:15:08;;;;;;;;;;;;;;;;;;10232332;28;20400;-59
2021/10/12 05:20:06;;;;;;;5.00;0.73;;;;;;;;;;10231648;28;19917;-60
2021/10/12 05:25:04;;;;;;;4.47;0.40;;;;;;;;;;10229435;28;20038;-59
2021/10/12 05:30:02;;;;;;;2.87;0.97;;;;;;;;;;10237875;28;20041;-59
2021/10/12 05:34:59;;;;;;;3.50;0.50;;;;;;;;;;10234050;28;20042;-58
2021/10/12 05:39:57;;;;;;;3.90;0.83;;;;;;;;;;10231640;28;20088;-60
2021/10/12 05:44:54;;;;;;;2.53;0.53;;;;;;;;;;10244687;28;20479;-60
2021/10/12 05:49:52;;;;;;;5.27;0.63;;;;;;;;;;10216309;28;20052;-59
2021/10/12 05:54:56;;;;;;;3.23;0.50;;;;;;;;;;10235647;28;20085;-59
2021/10/12 05:59:54;;;;;;;5.55;1.13;;;;;;;;;;10226216;28;20034;-59
2021/10/12 06:04:51;;;;;;;1.57;0.40;;;;;;;;;;10230932;28;20496;-59
2021/10/12 06:09:49;;;;;;;6.40;1.23;;;;;;;;;;10228096;28;20738;-60
2021/10/12 06:14:46;;;;;;;2.43;0.43;;;;;;;;;;10237814;28;20042;-60
2021/10/12 06:19:43;;;;;;;2.87;0.70;;;;;;;;;;10238682;28;20037;-59
2021/10/12 06:24:41;;;;;;;6.33;0.80;;;;;;;;;;10228870;28;20038;-59
2021/10/12 06:29:38;;;;;;;2.90;0.70;;;;;;;;;;10222250;28;20702;-60
2021/10/12 06:34:35;;;;;;;2.57;0.57;;;;;;;;;;10216601;28;20042;-60
2021/10/12 06:39:35;;;;;;;7.60;1.27;;;;;;;;;;10206898;28;20035;-59
2021/10/12 06:44:32;;;;;;;2.88;1.10;;;;;;;;;;10227659;28;20037;-58
2021/10/12 06:49:30;;;;;;;3.13;0.60;;;;;;;;;;10214291;28;20066;-60
2021/10/12 06:54:28;;;;;;;4.30;1.10;;;;;;;;;;10226855;28;20065;-57
2021/10/12 06:59:25;;;;;;;4.30;0.83;;;;;;;;;;10233368;28;20096;-59
2021/10/12 07:04:23;;;;;;;3.87;0.80;;;;;;;;;;10236466;28;20423;-59
2021/10/12 07:09:20;;;;;;;0.30;0.30;;;;;;;;;;10242580;28;20041;-60
2021/10/12 07:14:18;;;;;;;1.63;0.60;;;;;;;;;;10230426;28;20049;-60
2021/10/12 07:19:15;;;;;;;2.50;0.40;;;;;;;;;;10215402;22;20062;-63
2021/10/12 07:24:12;;;;;;;3.03;0.53;;;;;;;;;;10197894;22;20054;-59
2021/10/12 07:29:10;;;;;;;3.33;0.53;;;;;;;;;;10163172;28;20270;-59
2021/10/12 07:34:08;;;;;;;1.48;0.80;;;;;;;;;;10132675;28;20039;-59
2021/10/12 07:39:07;;;;;;;3.90;0.40;;;;;;;;;;10131057;28;21417;-59
2021/10/12 07:44:04;;;;;;;;;;;;;;;;;;10129685;28;20979;-58
2021/10/12 07:49:02;;;;;;;0.38;0.30;;;;;;;;;;10170364;22;19993;-62
2021/10/12 07:54:01;;;;;;;0.40;0.40;;;;;;;;;;10072962;28;20055;-60
2021/10/12 07:58:58;;;;;;;1.35;0.50;;;;;;;;;;10094007;28;20054;-63
2021/10/12 08:03:56;;;;;;;3.00;0.57;;;;;;;;;;10050658;28;20457;-63
2021/10/12 08:08:53;;;;;;;0.30;0.20;;;;;;;;;;10049920;28;20125;-63
2021/10/12 08:13:55;;;;;;;1.77;0.30;;;;;;;;;;10041341;28;20039;-62
2021/10/12 08:18:53;;;;;;;0.30;0.30;;;;;;;;;;10090696;23;20718;-59
2021/10/12 08:23:52;;;;;;;1.38;0.32;;;;;;;;;;10166454;28;20050;-60
2021/10/12 08:28:52;;;;;;;0.50;0.35;;;;;;;;;;10140587;28;20062;-58
2021/10/12 08:33:49;;;;;;;0.50;0.30;;;;;;;;;;10132584;22;20106;-62
2021/10/12 08:38:53;;;;;;;1.13;0.53;;;;;;;;;;10191549;28;20031;-62
2021/10/12 08:43:54;;;;;;;1.95;0.30;;;;;;;;;;10165601;28;20044;-62
2021/10/12 08:48:53;;;;;;;4.47;1.00;;;;;;;;;;10170195;28;20034;-62
2021/10/12 08:53:51;;;;;;;0.45;0.17;;;;;;;;;;10189744;28;20058;-65
2021/10/12 08:58:49;;;;;;;6.30;0.50;;;;;;;;;;10200516;28;20139;-62
2021/10/12 09:08:55;;;;;;;1.95;0.32;;;;;;;;;;10190607;28;20038;-64
2021/10/12 09:13:53;;;;;;;1.15;0.45;;;;;;;;;;10177321;28;20499;-63
2021/10/12 09:18:53;;;;;;;4.63;0.22;;;;;;;;;;10169330;28;20459;-63
2021/10/12 09:23:59;;;;;;;0.57;0.10;;;;;;;;;;10159234;28;20093;-62
2021/10/12 09:28:58;;;;;;;0.10;0.10;;;;;;;;;;10185796;28;20042;-64
2021/10/12 09:33:55;;;;;;;1.55;0.10;;;;;;;;;;10198224;28;20046;-64
2021/10/12 09:38:53;;;;;;;0.20;0.10;;;;;;;;;;10177891;28;20033;-63
2021/10/12 09:43:50;;;;;;;0.10;0.10;;;;;;;;;;10188920;28;20042;-63
2021/10/12 09:48:48;;;;;;;2.70;0.30;;;;;;;;;;10190667;28;20061;-64
2021/10/12 09:53:46;;;;;;;0.80;0.20;;;;;;;;;;10188808;28;20031;-60
2021/10/12 09:58:45;;;;;;;;;;;;;;;;;;10185315;28;20122;-62
2021/10/12 10:03:42;;;;;;;4.13;0.65;;;;;;;;;;10175682;28;20039;-62
2021/10/12 10:08:42;;;;;;;0.90;0.33;;;;;;;;;;10194624;28;20149;-62
2021/10/12 10:13:40;;;;;;;0.13;0.13;;;;;;;;;;10160949;28;20042;-62
2021/10/12 10:18:38;;;;;;;0.10;0.10;;;;;;;;;;10201951;28;20037;-62
2021/10/12 10:24:11;;;;;;;1.17;0.20;;;;;;;;;;10206882;28;20042;-62
2021/10/12 10:29:27;;;;;;;2.53;0.47;;;;;;;;;;10203913;28;20064;-62
2021/10/12 10:34:32;;;;;;;0.77;0.22;;;;;;;;;;10194652;28;20166;-61
2021/10/12 10:39:37;;;;;;;1.35;0.30;;;;;;;;;;10206324;28;20475;-62
2021/10/12 10:44:53;;;;;;;0.70;0.35;;;;;;;;;;10215074;28;20101;-62
2021/10/12 10:50:09;;;;;;;0.63;0.28;;;;;;;;;;10198689;28;20037;-62
2021/10/12 10:55:06;;;;;;;1.65;0.25;;;;;;;;;;10206551;28;20033;-64
2021/10/12 11:00:16;;;;;;;0.73;0.43;;;;;;;;;;10169825;28;20034;-64
2021/10/12 11:05:30;;;;;;;0.82;0.32;;;;;;;;;;10188957;28;21056;-63
2021/10/12 11:10:28;;;;;;;1.65;0.30;;;;;;;;;;10190498;28;20039;-64
2021/10/12 11:15:26;;;;;;;0.70;0.50;;;;;;;;;;10192785;28;20034;-63
2021/10/12 11:20:23;;;;;;;0.33;0.10;;;;;;;;;;10198826;28;20142;-65
2021/10/12 11:25:21;;;;;;;;;;;;;;;;;;10198229;28;20647;-64
2021/10/12 11:30:19;;;;;;;1.65;0.32;;;;;;;;;;10204612;28;20566;-63
2021/10/12 11:35:16;;;;;;;3.30;0.30;;;;;;;;;;10172919;28;20101;-63
2021/10/12 11:40:15;;;;;;;3.33;0.33;;;;;;;;;;10194996;28;20478;-63
2021/10/12 11:45:12;;;;;;;0.68;0.40;;;;;;;;;;10173592;28;20056;-64
2021/10/12 11:50:10;;;;;;;0.10;0.10;;;;;;;;;;10199924;28;20042;-64
2021/10/12 11:55:09;;;;;;;1.45;0.30;;;;;;;;;;10182622;28;20551;-63
2021/10/12 12:00:07;;;;;;;2.78;0.45;;;;;;;;;;10216794;28;20070;-63
2021/10/12 12:05:11;;;;;;;0.45;0.35;;;;;;;;;;10211921;28;20077;-64
2021/10/12 12:10:09;;;;;;;1.48;0.52;;;;;;;;;;10201031;28;20459;-63
2021/10/12 12:15:08;;;;;;;0.88;0.73;;;;;;;;;;10202246;28;20040;-66
2021/10/12 12:20:07;;;;;;;0.13;0.10;;;;;;;;;;10182903;28;20149;-64
2021/10/12 12:25:07;;;;;;;1.55;0.50;;;;;;;;;;10205762;28;20049;-63
2021/10/12 12:30:06;;;;;;;0.47;0.30;;;;;;;;;;10194948;28;20566;-63
2021/10/12 12:35:05;;;;;;;1.85;0.47;;;;;;;;;;10183191;28;20392;-64
2021/10/12 12:40:24;;;;;;;0.93;0.20;;;;;;;;;;10153624;28;20460;-63
2021/10/12 12:45:23;;;;;;;1.60;0.40;;;;;;;;;;10163421;28;20127;-62
2021/10/12 12:50:33;;;;;;;3.30;0.20;;;;;;;;;;10189356;28;20053;-65
2021/10/12 12:55:31;;;;;;;2.05;0.30;;;;;;;;;;10203514;28;20372;-63
2021/10/12 13:00:28;;;;;;;1.40;0.37;;;;;;;;;;10180735;28;20034;-64
2021/10/12 13:05:26;;;;;;;0.33;0.30;;;;;;;;;;10183960;28;20043;-62
2021/10/12 13:10:24;;;;;;;0.13;0.10;;;;;;;;;;10188496;28;20066;-64
2021/10/12 13:15:22;;;;;;;3.50;0.40;;;;;;;;;;10179650;28;20070;-66
2021/10/12 13:20:19;;;;;;;0.67;0.40;;;;;;;;;;10184709;28;20667;-64
2021/10/12 13:25:17;;;;;;;0.30;0.20;;;;;;;;;;10169304;28;20096;-63
2021/10/12 13:30:14;;;;;;;0.10;0.10;;;;;;;;;;10176330;28;20030;-63
2021/10/12 13:35:14;;;;;;;0.00;0.00;;;;;;;;;;10191932;28;20462;-63
2021/10/12 13:40:12;;;;;;;0.73;0.25;;;;;;;;;;10185088;28;20046;-63
2021/10/12 13:45:12;;;;;;;3.40;0.40;;;;;;;;;;10186950;28;20069;-62
2021/10/12 13:50:10;;;;;;;4.65;0.52;;;;;;;;;;10196519;28;20463;-65
2021/10/12 13:55:08;;;;;;;0.40;0.15;;;;;;;;;;10197538;28;20030;-65
2021/10/12 14:00:06;;;;;;;3.80;0.30;;;;;;;;;;10206029;28;20034;-63
2021/10/12 14:05:09;;;;;;;0.20;0.20;;;;;;;;;;10182964;28;20042;-64
2021/10/12 14:10:08;;;;;;;0.67;0.10;;;;;;;;;;10171181;28;20038;-66
2021/10/12 14:15:06;;;;;;;0.20;0.20;;;;;;;;;;10213231;28;20372;-64
2021/10/12 14:20:05;;;;;;;3.83;0.40;;;;;;;;;;10205432;28;20121;-64
2021/10/12 14:25:03;;;;;;;9.57;0.30;;;;;;;;;;10211240;28;20133;-63
2021/10/12 14:30:02;;;;;;;3.80;0.27;;;;;;;;;;10197766;28;20133;-63
2021/10/12 14:34:59;;;;;;;0.10;0.10;;;;;;;;;;10201618;28;20397;-62
2021/10/12 14:39:57;;;;;;;1.40;0.20;;;;;;;;;;10180841;28;20031;-63
2021/10/12 14:44:55;;;;;;;1.93;0.37;;;;;;;;;;10186365;28;20488;-64
2021/10/12 14:49:52;;;;;;;1.10;0.13;;;;;;;;;;10191001;28;20459;-63
2021/10/12 14:54:49;;;;;;;1.03;0.10;;;;;;;;;;10197069;28;20500;-63
2021/10/12 14:59:47;;;;;;;0.97;0.17;;;;;;;;;;10199633;28;20034;-63
2021/10/12 15:04:44;;;;;;;1.60;0.10;;;;;;;;;;10205901;28;20038;-65
2021/10/12 15:09:42;;;;;;;0.67;0.20;;;;;;;;;;10173628;28;20030;-67
2021/10/12 15:14:39;;;;;;;0.10;0.10;;;;;;;;;;10193850;28;20113;-60
2021/10/12 15:19:36;;;;;;;0.10;0.10;;;;;;;;;;10187455;28;20041;-63
2021/10/12 15:24:34;;;;;;;6.40;0.73;;;;;;;;;;10204857;28;20131;-64
2021/10/12 15:29:33;;;;;;;;;;;;;;;;;;10189790;28;20068;-62
2021/10/12 15:34:31;;;;;;;10.40;0.83;;;;;;;;;;10200821;28;20009;-64
2021/10/12 15:39:30;;;;;;;2.03;0.43;;;;;;;;;;10206504;28;20121;-62
2021/10/12 15:44:28;;;;;;;1.40;0.30;;;;;;;;;;10209568;28;20034;-65
2021/10/12 15:49:26;;;;;;;0.10;0.10;;;;;;;;;;10194185;28;20030;-63
2021/10/12 15:54:23;;;;;;;1.00;1.00;;;;;;;;;;10196620;28;20034;-62
2021/10/12 15:59:21;;;;;;;1.08;0.20;;;;;;;;;;10191298;28;20031;-63
2021/10/12 16:04:18;;;;;;;0.10;0.10;;;;;;;;;;10209711;28;20066;-66
2021/10/12 16:09:16;;;;;;;0.20;0.20;;;;;;;;;;10194744;28;20121;-64
2021/10/12 16:14:17;;;;;;;0.40;0.40;;;;;;;;;;10178770;28;20061;-59
2021/10/12 16:24:38;;;;;;;0.10;0.10;;;;;;;;;;10180397;28;20037;-65
2021/10/12 16:29:35;;;;;;;0.20;0.20;;;;;;;;;;10195542;28;20041;-67
2021/10/12 16:34:33;;;;;;;0.10;0.10;;;;;;;;;;10176384;28;20551;-64
2021/10/12 16:39:32;;;;;;;2.83;0.30;;;;;;;;;;10202616;28;20518;-65
2021/10/12 16:44:30;;;;;;;0.10;0.10;;;;;;;;;;10157721;28;20038;-63
2021/10/12 16:49:28;;;;;;;0.77;0.30;;;;;;;;;;10173453;28;20027;-62
2021/10/12 16:54:26;;;;;;;0.22;0.20;;;;;;;;;;10167844;28;20038;-63
2021/10/12 16:59:27;;;;;;;0.20;0.20;;;;;;;;;;10163126;28;20042;-63
2021/10/12 17:04:26;;;;;;;0.50;0.13;;;;;;;;;;10177129;28;20042;-61
2021/10/12 17:09:23;;;;;;;3.13;0.30;;;;;;;;;;10182864;28;20108;-62
2021/10/12 17:14:21;;;;;;;1.00;0.20;;;;;;;;;;10192534;23;20139;-61
2021/10/12 17:19:18;;;;;;;0.10;0.10;;;;;;;;;;10221429;28;20041;-61
2021/10/12 17:24:16;;;;;;;0.97;0.20;;;;;;;;;;10218533;28;20057;-62
2021/10/12 17:29:14;;;;;;;0.10;0.10;;;;;;;;;;10236090;28;20033;-62
2021/10/12 17:34:11;;;;;;;1.30;0.47;;;;;;;;;;10231058;28;20627;-64
2021/10/12 17:39:09;;;;;;;0.20;0.10;;;;;;;;;;10215176;28;21122;-62
2021/10/12 17:44:06;;;;;;;1.40;0.23;;;;;;;;;;10225894;28;20034;-62
2021/10/12 17:49:03;;;;;;;0.97;0.20;;;;;;;;;;10235059;28;20038;-63
2021/10/12 17:54:11;;;;;;;8.67;0.50;;;;;;;;;;10232569;28;20034;-62
2021/10/12 17:59:09;;;;;;;0.10;0.10;;;;;;;;;;10224703;28;20038;-62
2021/10/12 18:04:07;;;;;;;0.30;0.00;;;;;;;;;;10238006;28;20042;-60
2021/10/12 18:09:04;;;;;;;0.17;0.10;;;;;;;;;;10236180;28;20586;-62
2021/10/12 18:14:03;;;;;;;3.40;0.30;;;;;;;;;;10221275;28;20049;-62
2021/10/12 18:19:00;;;;;;;;;;;;;;;;;;10230141;28;20029;-62
2021/10/12 18:23:59;;;;;;;0.47;0.30;;;;;;;;;;10233941;28;19922;-62
2021/10/12 18:28:56;;;;;;;1.45;0.20;;;;;;;;;;10227831;28;20351;-62
2021/10/12 18:33:54;;;;;;;1.97;0.30;;;;;;;;;;10228876;28;20039;-62
2021/10/12 18:38:51;;;;;;;0.20;0.20;;;;;;;;;;10212255;28;20060;-62
2021/10/12 18:43:50;;;;;;;0.40;0.40;;;;;;;;;;10227677;28;20034;-62
2021/10/12 18:48:48;;;;;;;0.50;0.23;;;;;;;;;;10231848;28;20034;-62
2021/10/12 18:53:46;;;;;;;0.80;0.43;;;;;;;;;;10235129;28;20037;-62
2021/10/12 18:58:44;;;;;;;2.75;0.35;;;;;;;;;;10226186;28;20439;-63
2021/10/12 19:03:41;;;;;;;0.33;0.30;;;;;;;;;;10233948;28;20030;-62
2021/10/12 19:08:39;;;;;;;2.77;0.40;;;;;;;;;;10227545;28;20042;-63
2021/10/12 19:13:40;;;;;;;2.63;0.25;;;;;;;;;;10229345;28;20124;-63
2021/10/12 19:18:38;;;;;;;0.40;0.40;;;;;;;;;;10214689;28;20042;-62
2021/10/12 19:23:35;;;;;;;1.02;0.20;;;;;;;;;;10236045;28;20344;-60
2021/10/12 19:28:34;;;;;;;0.33;0.10;;;;;;;;;;10219140;28;20068;-62
2021/10/12 19:33:32;;;;;;;0.40;0.30;;;;;;;;;;10230186;28;20034;-61
2021/10/12 19:38:30;;;;;;;2.40;0.50;;;;;;;;;;10220785;28;20133;-61
2021/10/12 19:43:28;;;;;;;0.83;0.50;;;;;;;;;;10222557;28;20286;-61
2021/10/12 19:48:26;;;;;;;1.75;0.40;;;;;;;;;;10233181;28;20132;-60
2021/10/12 19:53:23;;;;;;;2.27;0.27;;;;;;;;;;10234592;28;20483;-60
2021/10/12 19:58:21;;;;;;;0.47;0.43;;;;;;;;;;10218480;28;20105;-61
2021/10/12 20:08:34;;;;;;;0.47;0.47;;;;;;;;;;10223769;28;20042;-61
2021/10/12 20:13:32;;;;;;;3.63;2.22;;;;;;;;;;10219731;28;20053;-60
2021/10/12 20:23:45;;;;;;;1.08;0.65;;;;;;;;;;10233452;28;20045;-60
2021/10/12 20:28:43;;;;;;;0.60;0.57;;;;;;;;;;10238230;28;20045;-61
2021/10/12 20:33:40;;;;;;;0.60;0.60;;;;;;;;;;10217356;28;20038;-61
2021/10/12 20:38:39;;;;;;;2.30;1.03;;;;;;;;;;10225060;28;20038;-59
2021/10/12 20:43:37;;;;;;;0.60;0.60;;;;;;;;;;10226212;28;20038;-61
2021/10/12 20:48:34;;;;;;;2.33;0.70;;;;;;;;;;10227441;28;20034;-60
2021/10/12 20:53:32;;;;;;;2.57;1.03;;;;;;;;;;10217058;28;20493;-60
2021/10/12 20:58:29;;;;;;;0.87;0.80;;;;;;;;;;10233898;28;20042;-61
2021/10/12 21:03:27;;;;;;;3.80;1.17;;;;;;;;;;10216457;28;20515;-61
2021/10/12 21:08:24;;;;;;;3.43;0.90;;;;;;;;;;10220731;28;20038;-60
2021/10/12 21:13:22;;;;;;;7.27;1.90;;;;;;;;;;10213265;28;20130;-60
2021/10/12 21:18:19;;;;;;;2.20;0.97;;;;;;;;;;10220172;28;20446;-60
2021/10/12 21:23:16;;;;;;;5.30;2.13;;;;;;;;;;10237160;28;20054;-60
2021/10/12 21:28:14;;;;;;;0.87;0.67;;;;;;;;;;10223707;28;20053;-60
2021/10/12 21:33:11;;;;;;;1.50;0.83;;;;;;;;;;10232172;28;20034;-60
2021/10/12 21:38:09;;;;;;;2.77;1.07;;;;;;;;;;10229138;28;20456;-58
2021/10/12 21:43:07;;;;;;;7.82;1.80;;;;;;;;;;10223965;28;20041;-60
2021/10/12 21:48:05;;;;;;;1.40;0.95;;;;;;;;;;10226111;28;20053;-59
2021/10/12 21:53:04;;;;;;;3.13;1.00;;;;;;;;;;10215263;28;20570;-61
2021/10/12 21:58:01;;;;;;;2.80;0.88;;;;;;;;;;10233642;28;20292;-62
2021/10/12 22:03:00;;;;;;;3.90;2.03;;;;;;;;;;10224246;28;20038;-61
2021/10/12 22:07:58;;;;;;;1.75;1.00;;;;;;;;;;10236722;28;20049;-62
2021/10/12 22:12:56;;;;;;;8.27;1.93;;;;;;;;;;10227131;28;20045;-62
2021/10/12 22:17:53;;;;;;;3.00;1.73;;;;;;;;;;10239100;28;20046;-64
2021/10/12 22:22:51;;;;;;;8.87;1.80;;;;;;;;;;10237193;28;20514;-62
2021/10/12 22:27:48;;;;;;;1.80;1.67;;;;;;;;;;10238293;28;20037;-61
2021/10/12 22:32:45;;;;;;;2.07;1.27;;;;;;;;;;10215462;28;20096;-61
2021/10/12 22:37:43;;;;;;;1.93;0.90;;;;;;;;;;10250617;28;20041;-60
2021/10/12 22:42:40;;;;;;;2.67;0.80;;;;;;;;;;10238530;28;20030;-61
2021/10/12 22:47:38;;;;;;;1.20;1.10;;;;;;;;;;10245235;28;20095;-59
2021/10/12 22:52:36;;;;;;;4.77;1.33;;;;;;;;;;10260849;28;20037;-61
2021/10/12 22:57:33;;;;;;;;;;;;;;;;;;10207153;28;20041;-60
2021/10/12 23:02:31;;;;;;;2.20;0.55;;;;;;;;;;10242431;28;19921;-61
2021/10/12 23:07:28;;;;;;;4.80;1.60;;;;;;;;;;10245229;28;20065;-61
2021/10/12 23:12:25;;;;;;;1.60;0.90;;;;;;;;;;10246319;28;20239;-61
2021/10/12 23:17:23;;;;;;;1.87;1.03;;;;;;;;;;10238262;28;20095;-63
2021/10/12 23:22:20;;;;;;;8.00;1.40;;;;;;;;;;10244800;28;20034;-63
2021/10/12 23:27:18;;;;;;;1.93;0.93;;;;;;;;;;10245288;28;20049;-63
2021/10/12 23:32:15;;;;;;;1.50;0.83;;;;;;;;;;10249422;28;20041;-63
2021/10/12 23:37:13;;;;;;;4.37;1.03;;;;;;;;;;10229432;28;20033;-63
2021/10/12 23:42:10;;;;;;;4.23;1.50;;;;;;;;;;10238147;28;20046;-64
2021/10/12 23:47:08;;;;;;;2.20;0.80;;;;;;;;;;10234991;28;20531;-63
2021/10/12 23:52:05;;;;;;;2.37;1.10;;;;;;;;;;10233358;28;20040;-63
2021/10/12 23:57:03;;;;;;;3.90;2.30;;;;;;;;;;10241823;28;20044;-62
